sensor_id;sensor_type;location;lat;lon;timestamp;pressure;altitude;pressure_sealevel;temperature
19666;BMP180;9980;51.020;7.772;2022-08-21T00:01:52;97719.00;;;17.90
19666;BMP180;9980;51.020;7.772;2022-08-21T00:04:19;97734.00;;;17.90
19666;BMP180;9980;51.020;7.772;2022-08-21T00:06:52;97719.00;;;17.80
19666;BMP180;9980;51.020;7.772;2022-08-21T00:09:20;97731.00;;;17.80
19666;BMP180;9980;51.020;7.772;2022-08-21T00:11:47;97723.00;;;17.80
19666;BMP180;9980;51.020;7.772;2022-08-21T00:14:15;97726.00;;;17.70
19666;BMP180;9980;51.020;7.772;2022-08-21T00:16:43;97719.00;;;17.70
19666;BMP180;9980;51.020;7.772;2022-08-21T00:19:10;97721.00;;;17.70
19666;BMP180;9980;51.020;7.772;2022-08-21T00:21:37;97713.00;;;17.60
19666;BMP180;9980;51.020;7.772;2022-08-21T00:24:05;97705.00;;;17.60
19666;BMP180;9980;51.020;7.772;2022-08-21T00:26:33;97713.00;;;17.60
19666;BMP180;9980;51.020;7.772;2022-08-21T00:29:03;97717.00;;;17.50
19666;BMP180;9980;51.020;7.772;2022-08-21T00:31:30;97720.00;;;17.50
19666;BMP180;9980;51.020;7.772;2022-08-21T00:33:58;97719.00;;;17.50
19666;BMP180;9980;51.020;7.772;2022-08-21T00:36:27;97709.00;;;17.40
19666;BMP180;9980;51.020;7.772;2022-08-21T00:38:56;97719.00;;;17.40
19666;BMP180;9980;51.020;7.772;2022-08-21T00:41:23;97711.00;;;17.40
19666;BMP180;9980;51.020;7.772;2022-08-21T00:44:07;97707.00;;;17.30
19666;BMP180;9980;51.020;7.772;2022-08-21T00:46:36;97693.00;;;17.30
19666;BMP180;9980;51.020;7.772;2022-08-21T00:49:05;97700.00;;;17.20
19666;BMP180;9980;51.020;7.772;2022-08-21T00:51:41;97700.00;;;17.20
19666;BMP180;9980;51.020;7.772;2022-08-21T00:54:10;97685.00;;;17.20
19666;BMP180;9980;51.020;7.772;2022-08-21T00:56:46;97716.00;;;17.20
19666;BMP180;9980;51.020;7.772;2022-08-21T00:59:18;97709.00;;;17.10
19666;BMP180;9980;51.020;7.772;2022-08-21T01:01:47;97704.00;;;17.10
19666;BMP180;9980;51.020;7.772;2022-08-21T01:04:15;97712.00;;;17.10
19666;BMP180;9980;51.020;7.772;2022-08-21T01:06:43;97706.00;;;17.00
19666;BMP180;9980;51.020;7.772;2022-08-21T01:09:12;97713.00;;;17.00
19666;BMP180;9980;51.020;7.772;2022-08-21T01:11:40;97699.00;;;17.00
19666;BMP180;9980;51.020;7.772;2022-08-21T01:14:10;97698.00;;;16.90
19666;BMP180;9980;51.020;7.772;2022-08-21T01:16:46;97714.00;;;16.90
19666;BMP180;9980;51.020;7.772;2022-08-21T01:19:17;97711.00;;;16.90
19666;BMP180;9980;51.020;7.772;2022-08-21T01:21:44;97694.00;;;16.80
19666;BMP180;9980;51.020;7.772;2022-08-21T01:24:13;97699.00;;;16.80
19666;BMP180;9980;51.020;7.772;2022-08-21T01:26:42;97692.00;;;16.80
19666;BMP180;9980;51.020;7.772;2022-08-21T01:31:47;97697.00;;;16.70
19666;BMP180;9980;51.020;7.772;2022-08-21T01:34:15;97700.00;;;16.70
19666;BMP180;9980;51.020;7.772;2022-08-21T01:36:45;97688.00;;;16.70
19666;BMP180;9980;51.020;7.772;2022-08-21T01:39:13;97702.00;;;16.60
19666;BMP180;9980;51.020;7.772;2022-08-21T01:41:41;97695.00;;;16.60
19666;BMP180;9980;51.020;7.772;2022-08-21T01:44:08;97708.00;;;16.60
19666;BMP180;9980;51.020;7.772;2022-08-21T01:46:36;97703.00;;;16.60
19666;BMP180;9980;51.020;7.772;2022-08-21T01:49:04;97697.00;;;16.50
19666;BMP180;9980;51.020;7.772;2022-08-21T01:51:32;97693.00;;;16.50
19666;BMP180;9980;51.020;7.772;2022-08-21T01:53:59;97686.00;;;16.50
19666;BMP180;9980;51.020;7.772;2022-08-21T01:56:26;97698.00;;;16.40
19666;BMP180;9980;51.020;7.772;2022-08-21T01:58:54;97709.00;;;16.40
19666;BMP180;9980;51.020;7.772;2022-08-21T02:01:21;97686.00;;;16.40
19666;BMP180;9980;51.020;7.772;2022-08-21T02:03:48;97692.00;;;16.40
19666;BMP180;9980;51.020;7.772;2022-08-21T02:06:15;97688.00;;;16.30
19666;BMP180;9980;51.020;7.772;2022-08-21T02:08:46;97701.00;;;16.30
19666;BMP180;9980;51.020;7.772;2022-08-21T02:11:13;97689.00;;;16.30
19666;BMP180;9980;51.020;7.772;2022-08-21T02:13:40;97684.00;;;16.30
19666;BMP180;9980;51.020;7.772;2022-08-21T02:16:08;97686.00;;;16.20
19666;BMP180;9980;51.020;7.772;2022-08-21T02:18:35;97681.00;;;16.20
19666;BMP180;9980;51.020;7.772;2022-08-21T02:21:03;97695.00;;;16.20
19666;BMP180;9980;51.020;7.772;2022-08-21T02:23:32;97691.00;;;16.20
19666;BMP180;9980;51.020;7.772;2022-08-21T02:26:02;97682.00;;;16.10
19666;BMP180;9980;51.020;7.772;2022-08-21T02:28:30;97693.00;;;16.10
19666;BMP180;9980;51.020;7.772;2022-08-21T02:30:57;97689.00;;;16.10
19666;BMP180;9980;51.020;7.772;2022-08-21T02:33:25;97689.00;;;16.10
19666;BMP180;9980;51.020;7.772;2022-08-21T02:35:54;97668.00;;;16.10
19666;BMP180;9980;51.020;7.772;2022-08-21T02:38:26;97678.00;;;16.00
19666;BMP180;9980;51.020;7.772;2022-08-21T02:40:54;97675.00;;;16.00
19666;BMP180;9980;51.020;7.772;2022-08-21T02:43:25;97676.00;;;16.00
19666;BMP180;9980;51.020;7.772;2022-08-21T02:45:53;97682.00;;;16.00
19666;BMP180;9980;51.020;7.772;2022-08-21T02:48:25;97678.00;;;15.90
19666;BMP180;9980;51.020;7.772;2022-08-21T02:50:57;97700.00;;;15.90
19666;BMP180;9980;51.020;7.772;2022-08-21T02:53:25;97685.00;;;15.90
19666;BMP180;9980;51.020;7.772;2022-08-21T02:55:54;97685.00;;;15.90
19666;BMP180;9980;51.020;7.772;2022-08-21T02:58:27;97679.00;;;15.90
19666;BMP180;9980;51.020;7.772;2022-08-21T03:00:55;97676.00;;;15.80
19666;BMP180;9980;51.020;7.772;2022-08-21T03:03:24;97674.00;;;15.80
19666;BMP180;9980;51.020;7.772;2022-08-21T03:05:51;97670.00;;;15.80
19666;BMP180;9980;51.020;7.772;2022-08-21T03:08:21;97682.00;;;15.80
19666;BMP180;9980;51.020;7.772;2022-08-21T03:10:53;97673.00;;;15.80
19666;BMP180;9980;51.020;7.772;2022-08-21T03:13:20;97675.00;;;15.80
19666;BMP180;9980;51.020;7.772;2022-08-21T03:15:49;97672.00;;;15.80
19666;BMP180;9980;51.020;7.772;2022-08-21T03:18:17;97663.00;;;15.80
19666;BMP180;9980;51.020;7.772;2022-08-21T03:20:45;97675.00;;;15.80
19666;BMP180;9980;51.020;7.772;2022-08-21T03:23:14;97673.00;;;15.70
19666;BMP180;9980;51.020;7.772;2022-08-21T03:25:46;97675.00;;;15.70
19666;BMP180;9980;51.020;7.772;2022-08-21T03:28:18;97676.00;;;15.70
19666;BMP180;9980;51.020;7.772;2022-08-21T03:30:49;97662.00;;;15.70
19666;BMP180;9980;51.020;7.772;2022-08-21T03:33:18;97667.00;;;15.70
19666;BMP180;9980;51.020;7.772;2022-08-21T03:36:05;97681.00;;;15.60
19666;BMP180;9980;51.020;7.772;2022-08-21T03:38:36;97677.00;;;15.60
19666;BMP180;9980;51.020;7.772;2022-08-21T03:41:07;97684.00;;;15.60
19666;BMP180;9980;51.020;7.772;2022-08-21T03:43:35;97677.00;;;15.60
19666;BMP180;9980;51.020;7.772;2022-08-21T03:46:03;97677.00;;;15.50
19666;BMP180;9980;51.020;7.772;2022-08-21T03:48:32;97674.00;;;15.50
19666;BMP180;9980;51.020;7.772;2022-08-21T03:50:59;97672.00;;;15.50
19666;BMP180;9980;51.020;7.772;2022-08-21T03:53:27;97671.00;;;15.50
19666;BMP180;9980;51.020;7.772;2022-08-21T03:55:54;97672.00;;;15.50
19666;BMP180;9980;51.020;7.772;2022-08-21T03:58:25;97675.00;;;15.50
19666;BMP180;9980;51.020;7.772;2022-08-21T04:00:57;97683.00;;;15.40
19666;BMP180;9980;51.020;7.772;2022-08-21T04:03:27;97675.00;;;15.50
19666;BMP180;9980;51.020;7.772;2022-08-21T04:05:54;97674.00;;;15.50
19666;BMP180;9980;51.020;7.772;2022-08-21T04:08:21;97694.00;;;15.50
19666;BMP180;9980;51.020;7.772;2022-08-21T04:10:54;97685.00;;;15.50
19666;BMP180;9980;51.020;7.772;2022-08-21T04:13:22;97690.00;;;15.50
19666;BMP180;9980;51.020;7.772;2022-08-21T04:15:50;97683.00;;;15.50
19666;BMP180;9980;51.020;7.772;2022-08-21T04:18:17;97690.00;;;15.50
19666;BMP180;9980;51.020;7.772;2022-08-21T04:20:48;97683.00;;;15.40
19666;BMP180;9980;51.020;7.772;2022-08-21T04:23:19;97694.00;;;15.40
19666;BMP180;9980;51.020;7.772;2022-08-21T04:25:51;97692.00;;;15.40
19666;BMP180;9980;51.020;7.772;2022-08-21T04:28:19;97693.00;;;15.40
19666;BMP180;9980;51.020;7.772;2022-08-21T04:30:50;97698.00;;;15.40
19666;BMP180;9980;51.020;7.772;2022-08-21T04:33:20;97696.00;;;15.40
19666;BMP180;9980;51.020;7.772;2022-08-21T04:35:49;97699.00;;;15.40
19666;BMP180;9980;51.020;7.772;2022-08-21T04:38:18;97680.00;;;15.40
19666;BMP180;9980;51.020;7.772;2022-08-21T04:40:46;97696.00;;;15.40
19666;BMP180;9980;51.020;7.772;2022-08-21T04:43:15;97701.00;;;15.40
19666;BMP180;9980;51.020;7.772;2022-08-21T04:45:46;97694.00;;;15.30
19666;BMP180;9980;51.020;7.772;2022-08-21T04:48:21;97698.00;;;15.30
19666;BMP180;9980;51.020;7.772;2022-08-21T04:51:02;97702.00;;;15.30
19666;BMP180;9980;51.020;7.772;2022-08-21T04:54:12;97718.00;;;15.30
19666;BMP180;9980;51.020;7.772;2022-08-21T04:56:47;97695.00;;;15.30
19666;BMP180;9980;51.020;7.772;2022-08-21T04:59:25;97709.00;;;15.20
19666;BMP180;9980;51.020;7.772;2022-08-21T05:01:54;97703.00;;;15.20
19666;BMP180;9980;51.020;7.772;2022-08-21T05:04:29;97708.00;;;15.20
19666;BMP180;9980;51.020;7.772;2022-08-21T05:07:02;97700.00;;;15.20
19666;BMP180;9980;51.020;7.772;2022-08-21T05:09:31;97702.00;;;15.20
19666;BMP180;9980;51.020;7.772;2022-08-21T05:12:01;97703.00;;;15.20
19666;BMP180;9980;51.020;7.772;2022-08-21T05:14:29;97703.00;;;15.20
19666;BMP180;9980;51.020;7.772;2022-08-21T05:16:56;97703.00;;;15.20
19666;BMP180;9980;51.020;7.772;2022-08-21T05:19:23;97696.00;;;15.20
19666;BMP180;9980;51.020;7.772;2022-08-21T05:21:50;97708.00;;;15.20
19666;BMP180;9980;51.020;7.772;2022-08-21T05:24:17;97718.00;;;15.20
19666;BMP180;9980;51.020;7.772;2022-08-21T05:26:44;97706.00;;;15.20
19666;BMP180;9980;51.020;7.772;2022-08-21T05:29:15;97726.00;;;15.30
19666;BMP180;9980;51.020;7.772;2022-08-21T05:31:46;97703.00;;;15.30
19666;BMP180;9980;51.020;7.772;2022-08-21T05:34:18;97708.00;;;15.30
19666;BMP180;9980;51.020;7.772;2022-08-21T05:36:45;97704.00;;;15.30
19666;BMP180;9980;51.020;7.772;2022-08-21T05:39:13;97710.00;;;15.40
19666;BMP180;9980;51.020;7.772;2022-08-21T05:41:40;97724.00;;;15.40
19666;BMP180;9980;51.020;7.772;2022-08-21T05:44:07;97711.00;;;15.50
19666;BMP180;9980;51.020;7.772;2022-08-21T05:46:37;97715.00;;;15.50
19666;BMP180;9980;51.020;7.772;2022-08-21T05:49:04;97717.00;;;15.50
19666;BMP180;9980;51.020;7.772;2022-08-21T05:51:31;97707.00;;;15.60
19666;BMP180;9980;51.020;7.772;2022-08-21T05:53:58;97721.00;;;15.70
19666;BMP180;9980;51.020;7.772;2022-08-21T05:56:26;97703.00;;;15.70
19666;BMP180;9980;51.020;7.772;2022-08-21T05:58:53;97697.00;;;15.70
19666;BMP180;9980;51.020;7.772;2022-08-21T06:01:20;97697.00;;;15.80
19666;BMP180;9980;51.020;7.772;2022-08-21T06:03:47;97706.00;;;15.90
19666;BMP180;9980;51.020;7.772;2022-08-21T06:06:14;97696.00;;;16.00
19666;BMP180;9980;51.020;7.772;2022-08-21T06:08:42;97706.00;;;16.00
19666;BMP180;9980;51.020;7.772;2022-08-21T06:11:09;97715.00;;;16.10
19666;BMP180;9980;51.020;7.772;2022-08-21T06:13:37;97715.00;;;16.20
19666;BMP180;9980;51.020;7.772;2022-08-21T06:16:13;97700.00;;;16.20
19666;BMP180;9980;51.020;7.772;2022-08-21T06:18:44;97712.00;;;16.30
19666;BMP180;9980;51.020;7.772;2022-08-21T06:21:13;97691.00;;;16.40
19666;BMP180;9980;51.020;7.772;2022-08-21T06:23:41;97699.00;;;16.50
19666;BMP180;9980;51.020;7.772;2022-08-21T06:26:10;97706.00;;;16.60
19666;BMP180;9980;51.020;7.772;2022-08-21T06:28:37;97703.00;;;16.70
19666;BMP180;9980;51.020;7.772;2022-08-21T06:31:21;97717.00;;;16.80
19666;BMP180;9980;51.020;7.772;2022-08-21T06:33:49;97713.00;;;16.90
19666;BMP180;9980;51.020;7.772;2022-08-21T06:36:17;97717.00;;;17.00
19666;BMP180;9980;51.020;7.772;2022-08-21T06:38:45;97706.00;;;17.10
19666;BMP180;9980;51.020;7.772;2022-08-21T06:41:19;97714.00;;;17.20
19666;BMP180;9980;51.020;7.772;2022-08-21T06:43:53;97695.00;;;17.30
19666;BMP180;9980;51.020;7.772;2022-08-21T06:46:21;97693.00;;;17.50
19666;BMP180;9980;51.020;7.772;2022-08-21T06:48:48;97702.00;;;17.60
19666;BMP180;9980;51.020;7.772;2022-08-21T06:51:16;97698.00;;;17.70
19666;BMP180;9980;51.020;7.772;2022-08-21T06:53:44;97694.00;;;17.80
19666;BMP180;9980;51.020;7.772;2022-08-21T06:56:11;97692.00;;;18.00
19666;BMP180;9980;51.020;7.772;2022-08-21T06:58:38;97685.00;;;18.10
19666;BMP180;9980;51.020;7.772;2022-08-21T07:01:05;97685.00;;;18.20
19666;BMP180;9980;51.020;7.772;2022-08-21T07:03:40;97689.00;;;18.30
19666;BMP180;9980;51.020;7.772;2022-08-21T07:06:10;97684.00;;;18.50
19666;BMP180;9980;51.020;7.772;2022-08-21T07:08:38;97689.00;;;18.60
19666;BMP180;9980;51.020;7.772;2022-08-21T07:11:17;97684.00;;;18.70
19666;BMP180;9980;51.020;7.772;2022-08-21T07:13:45;97689.00;;;18.90
19666;BMP180;9980;51.020;7.772;2022-08-21T07:16:12;97678.00;;;19.00
19666;BMP180;9980;51.020;7.772;2022-08-21T07:18:39;97680.00;;;19.20
19666;BMP180;9980;51.020;7.772;2022-08-21T07:21:07;97683.00;;;19.30
19666;BMP180;9980;51.020;7.772;2022-08-21T07:23:42;97680.00;;;19.50
19666;BMP180;9980;51.020;7.772;2022-08-21T07:26:11;97668.00;;;19.60
19666;BMP180;9980;51.020;7.772;2022-08-21T07:28:39;97685.00;;;19.80
19666;BMP180;9980;51.020;7.772;2022-08-21T07:31:06;97682.00;;;19.90
19666;BMP180;9980;51.020;7.772;2022-08-21T07:33:36;97687.00;;;20.10
19666;BMP180;9980;51.020;7.772;2022-08-21T07:36:03;97693.00;;;20.30
19666;BMP180;9980;51.020;7.772;2022-08-21T07:38:30;97675.00;;;20.40
19666;BMP180;9980;51.020;7.772;2022-08-21T07:41:00;97686.00;;;20.60
19666;BMP180;9980;51.020;7.772;2022-08-21T07:43:29;97670.00;;;20.80
19666;BMP180;9980;51.020;7.772;2022-08-21T07:45:56;97675.00;;;20.90
19666;BMP180;9980;51.020;7.772;2022-08-21T07:48:24;97675.00;;;21.10
19666;BMP180;9980;51.020;7.772;2022-08-21T07:50:51;97667.00;;;21.30
19666;BMP180;9980;51.020;7.772;2022-08-21T07:53:18;97674.00;;;21.40
19666;BMP180;9980;51.020;7.772;2022-08-21T07:55:45;97677.00;;;21.60
19666;BMP180;9980;51.020;7.772;2022-08-21T07:58:12;97672.00;;;21.80
19666;BMP180;9980;51.020;7.772;2022-08-21T08:00:40;97677.00;;;21.90
19666;BMP180;9980;51.020;7.772;2022-08-21T08:03:08;97660.00;;;22.10
19666;BMP180;9980;51.020;7.772;2022-08-21T08:05:36;97674.00;;;22.30
19666;BMP180;9980;51.020;7.772;2022-08-21T08:08:04;97669.00;;;22.40
19666;BMP180;9980;51.020;7.772;2022-08-21T08:10:31;97663.00;;;22.60
19666;BMP180;9980;51.020;7.772;2022-08-21T08:12:59;97661.00;;;22.80
19666;BMP180;9980;51.020;7.772;2022-08-21T08:15:27;97662.00;;;22.90
19666;BMP180;9980;51.020;7.772;2022-08-21T08:17:56;97673.00;;;23.10
19666;BMP180;9980;51.020;7.772;2022-08-21T08:20:25;97662.00;;;23.20
19666;BMP180;9980;51.020;7.772;2022-08-21T08:22:55;97664.00;;;23.20
19666;BMP180;9980;51.020;7.772;2022-08-21T08:25:26;97673.00;;;23.30
19666;BMP180;9980;51.020;7.772;2022-08-21T08:28:02;97678.00;;;23.30
19666;BMP180;9980;51.020;7.772;2022-08-21T08:30:43;97674.00;;;23.40
19666;BMP180;9980;51.020;7.772;2022-08-21T08:33:10;97671.00;;;23.40
19666;BMP180;9980;51.020;7.772;2022-08-21T08:35:37;97665.00;;;23.50
19666;BMP180;9980;51.020;7.772;2022-08-21T08:38:06;97676.00;;;23.50
19666;BMP180;9980;51.020;7.772;2022-08-21T08:40:58;97677.00;;;23.50
19666;BMP180;9980;51.020;7.772;2022-08-21T08:43:32;97666.00;;;23.60
19666;BMP180;9980;51.020;7.772;2022-08-21T08:46:11;97658.00;;;23.60
19666;BMP180;9980;51.020;7.772;2022-08-21T08:48:58;97656.00;;;23.80
19666;BMP180;9980;51.020;7.772;2022-08-21T08:51:56;97646.00;;;23.90
19666;BMP180;9980;51.020;7.772;2022-08-21T08:54:35;97644.00;;;24.00
19666;BMP180;9980;51.020;7.772;2022-08-21T08:57:10;97650.00;;;24.10
19666;BMP180;9980;51.020;7.772;2022-08-21T08:59:45;97667.00;;;24.30
19666;BMP180;9980;51.020;7.772;2022-08-21T09:02:16;97668.00;;;24.40
19666;BMP180;9980;51.020;7.772;2022-08-21T09:04:47;97664.00;;;24.40
19666;BMP180;9980;51.020;7.772;2022-08-21T09:07:31;97674.00;;;24.50
19666;BMP180;9980;51.020;7.772;2022-08-21T09:12:56;97666.00;;;24.60
19666;BMP180;9980;51.020;7.772;2022-08-21T09:21:43;97667.00;;;24.70
19666;BMP180;9980;51.020;7.772;2022-08-21T09:24:55;97658.00;;;24.80
19666;BMP180;9980;51.020;7.772;2022-08-21T09:27:26;97662.00;;;25.00
19666;BMP180;9980;51.020;7.772;2022-08-21T09:29:54;97649.00;;;25.10
19666;BMP180;9980;51.020;7.772;2022-08-21T09:32:31;97647.00;;;25.30
19666;BMP180;9980;51.020;7.772;2022-08-21T09:35:21;97640.00;;;25.40
19666;BMP180;9980;51.020;7.772;2022-08-21T09:37:59;97650.00;;;25.50
19666;BMP180;9980;51.020;7.772;2022-08-21T09:40:39;97644.00;;;25.60
19666;BMP180;9980;51.020;7.772;2022-08-21T09:43:20;97631.00;;;25.80
19666;BMP180;9980;51.020;7.772;2022-08-21T09:46:02;97649.00;;;25.90
19666;BMP180;9980;51.020;7.772;2022-08-21T09:48:29;97627.00;;;26.10
19666;BMP180;9980;51.020;7.772;2022-08-21T09:51:11;97634.00;;;26.10
19666;BMP180;9980;51.020;7.772;2022-08-21T09:53:51;97630.00;;;26.20
19666;BMP180;9980;51.020;7.772;2022-08-21T09:56:32;97632.00;;;26.30
19666;BMP180;9980;51.020;7.772;2022-08-21T09:59:31;97629.00;;;26.30
19666;BMP180;9980;51.020;7.772;2022-08-21T10:02:26;97625.00;;;26.40
19666;BMP180;9980;51.020;7.772;2022-08-21T10:05:01;97625.00;;;26.50
19666;BMP180;9980;51.020;7.772;2022-08-21T10:07:32;97616.00;;;26.50
19666;BMP180;9980;51.020;7.772;2022-08-21T10:10:21;97633.00;;;26.60
19666;BMP180;9980;51.020;7.772;2022-08-21T10:13:29;97634.00;;;26.70
19666;BMP180;9980;51.020;7.772;2022-08-21T10:19:42;97624.00;;;26.80
19666;BMP180;9980;51.020;7.772;2022-08-21T10:22:42;97610.00;;;26.90
19666;BMP180;9980;51.020;7.772;2022-08-21T10:25:19;97626.00;;;27.00
19666;BMP180;9980;51.020;7.772;2022-08-21T10:28:26;97621.00;;;27.00
19666;BMP180;9980;51.020;7.772;2022-08-21T10:31:18;97618.00;;;27.00
19666;BMP180;9980;51.020;7.772;2022-08-21T10:37:08;97609.00;;;27.10
19666;BMP180;9980;51.020;7.772;2022-08-21T10:40:05;97614.00;;;27.10
19666;BMP180;9980;51.020;7.772;2022-08-21T10:45:55;97613.00;;;27.20
19666;BMP180;9980;51.020;7.772;2022-08-21T10:48:47;97608.00;;;27.30
19666;BMP180;9980;51.020;7.772;2022-08-21T10:54:23;97590.00;;;27.40
19666;BMP180;9980;51.020;7.772;2022-08-21T10:57:02;97570.00;;;27.50
19666;BMP180;9980;51.020;7.772;2022-08-21T11:00:07;97604.00;;;27.60
19666;BMP180;9980;51.020;7.772;2022-08-21T11:02:56;97598.00;;;27.70
19666;BMP180;9980;51.020;7.772;2022-08-21T11:05:35;97595.00;;;27.80
19666;BMP180;9980;51.020;7.772;2022-08-21T11:08:26;97590.00;;;27.90
19666;BMP180;9980;51.020;7.772;2022-08-21T11:11:08;97592.00;;;27.90
19666;BMP180;9980;51.020;7.772;2022-08-21T11:13:49;97589.00;;;28.00
19666;BMP180;9980;51.020;7.772;2022-08-21T11:17:00;97604.00;;;28.10
19666;BMP180;9980;51.020;7.772;2022-08-21T11:19:42;97594.00;;;28.20
19666;BMP180;9980;51.020;7.772;2022-08-21T11:22:26;97581.00;;;28.30
19666;BMP180;9980;51.020;7.772;2022-08-21T11:25:03;97593.00;;;28.50
19666;BMP180;9980;51.020;7.772;2022-08-21T11:27:42;97586.00;;;28.50
19666;BMP180;9980;51.020;7.772;2022-08-21T11:30:12;97588.00;;;28.70
19666;BMP180;9980;51.020;7.772;2022-08-21T11:33:02;97587.00;;;28.70
19666;BMP180;9980;51.020;7.772;2022-08-21T11:35:52;97577.00;;;28.80
19666;BMP180;9980;51.020;7.772;2022-08-21T11:38:33;97590.00;;;28.90
19666;BMP180;9980;51.020;7.772;2022-08-21T11:41:30;97577.00;;;28.80
19666;BMP180;9980;51.020;7.772;2022-08-21T11:44:29;97584.00;;;29.00
19666;BMP180;9980;51.020;7.772;2022-08-21T11:47:21;97571.00;;;29.20
19666;BMP180;9980;51.020;7.772;2022-08-21T11:50:18;97579.00;;;29.30
19666;BMP180;9980;51.020;7.772;2022-08-21T11:53:15;97570.00;;;29.40
19666;BMP180;9980;51.020;7.772;2022-08-21T11:56:14;97576.00;;;29.50
19666;BMP180;9980;51.020;7.772;2022-08-21T11:58:48;97582.00;;;29.60
19666;BMP180;9980;51.020;7.772;2022-08-21T12:01:28;97583.00;;;29.60
19666;BMP180;9980;51.020;7.772;2022-08-21T12:04:09;97588.00;;;29.70
19666;BMP180;9980;51.020;7.772;2022-08-21T12:06:40;97578.00;;;29.70
19666;BMP180;9980;51.020;7.772;2022-08-21T12:09:30;97577.00;;;29.70
19666;BMP180;9980;51.020;7.772;2022-08-21T12:12:27;97573.00;;;29.70
19666;BMP180;9980;51.020;7.772;2022-08-21T12:18:24;97592.00;;;29.80
19666;BMP180;9980;51.020;7.772;2022-08-21T12:21:23;97584.00;;;29.80
19666;BMP180;9980;51.020;7.772;2022-08-21T12:26:56;97587.00;;;29.90
19666;BMP180;9980;51.020;7.772;2022-08-21T12:29:30;97586.00;;;29.90
19666;BMP180;9980;51.020;7.772;2022-08-21T12:32:03;97588.00;;;29.90
19666;BMP180;9980;51.020;7.772;2022-08-21T12:34:46;97582.00;;;29.90
19666;BMP180;9980;51.020;7.772;2022-08-21T12:37:50;97568.00;;;29.80
19666;BMP180;9980;51.020;7.772;2022-08-21T12:40:31;97579.00;;;29.90
19666;BMP180;9980;51.020;7.772;2022-08-21T12:43:02;97570.00;;;29.90
19666;BMP180;9980;51.020;7.772;2022-08-21T12:45:42;97571.00;;;29.90
19666;BMP180;9980;51.020;7.772;2022-08-21T12:48:48;97555.00;;;30.00
19666;BMP180;9980;51.020;7.772;2022-08-21T12:52:14;97570.00;;;30.00
19666;BMP180;9980;51.020;7.772;2022-08-21T12:54:44;97577.00;;;30.20
19666;BMP180;9980;51.020;7.772;2022-08-21T12:57:26;97558.00;;;30.20
19666;BMP180;9980;51.020;7.772;2022-08-21T12:59:58;97561.00;;;30.30
19666;BMP180;9980;51.020;7.772;2022-08-21T13:02:33;97571.00;;;30.40
19666;BMP180;9980;51.020;7.772;2022-08-21T13:05:07;97563.00;;;30.40
19666;BMP180;9980;51.020;7.772;2022-08-21T13:07:37;97570.00;;;30.50
19666;BMP180;9980;51.020;7.772;2022-08-21T13:10:21;97566.00;;;30.60
19666;BMP180;9980;51.020;7.772;2022-08-21T13:12:54;97566.00;;;30.70
19666;BMP180;9980;51.020;7.772;2022-08-21T13:15:36;97557.00;;;30.70
19666;BMP180;9980;51.020;7.772;2022-08-21T13:18:06;97573.00;;;30.80
19666;BMP180;9980;51.020;7.772;2022-08-21T13:20:40;97567.00;;;30.80
19666;BMP180;9980;51.020;7.772;2022-08-21T13:23:30;97557.00;;;30.80
19666;BMP180;9980;51.020;7.772;2022-08-21T13:25:57;97553.00;;;30.80
19666;BMP180;9980;51.020;7.772;2022-08-21T13:28:34;97563.00;;;30.80
19666;BMP180;9980;51.020;7.772;2022-08-21T13:31:08;97556.00;;;30.90
19666;BMP180;9980;51.020;7.772;2022-08-21T13:33:39;97558.00;;;30.90
19666;BMP180;9980;51.020;7.772;2022-08-21T13:36:19;97546.00;;;30.80
19666;BMP180;9980;51.020;7.772;2022-08-21T13:38:47;97555.00;;;30.90
19666;BMP180;9980;51.020;7.772;2022-08-21T13:41:31;97551.00;;;30.90
19666;BMP180;9980;51.020;7.772;2022-08-21T13:44:32;97552.00;;;30.90
19666;BMP180;9980;51.020;7.772;2022-08-21T13:47:04;97551.00;;;31.00
19666;BMP180;9980;51.020;7.772;2022-08-21T13:49:36;97545.00;;;31.00
19666;BMP180;9980;51.020;7.772;2022-08-21T13:52:14;97551.00;;;31.10
19666;BMP180;9980;51.020;7.772;2022-08-21T13:54:42;97552.00;;;31.20
19666;BMP180;9980;51.020;7.772;2022-08-21T13:57:29;97551.00;;;31.10
19666;BMP180;9980;51.020;7.772;2022-08-21T14:00:13;97548.00;;;31.20
19666;BMP180;9980;51.020;7.772;2022-08-21T14:02:46;97546.00;;;31.30
19666;BMP180;9980;51.020;7.772;2022-08-21T14:05:29;97548.00;;;31.30
19666;BMP180;9980;51.020;7.772;2022-08-21T14:08:08;97554.00;;;31.30
19666;BMP180;9980;51.020;7.772;2022-08-21T14:10:45;97550.00;;;31.20
19666;BMP180;9980;51.020;7.772;2022-08-21T14:13:42;97540.00;;;31.20
19666;BMP180;9980;51.020;7.772;2022-08-21T14:16:26;97546.00;;;31.10
19666;BMP180;9980;51.020;7.772;2022-08-21T14:19:24;97544.00;;;30.90
19666;BMP180;9980;51.020;7.772;2022-08-21T14:21:51;97546.00;;;30.90
19666;BMP180;9980;51.020;7.772;2022-08-21T14:27:05;97540.00;;;30.80
19666;BMP180;9980;51.020;7.772;2022-08-21T14:29:40;97535.00;;;30.80
19666;BMP180;9980;51.020;7.772;2022-08-21T14:32:27;97550.00;;;30.80
19666;BMP180;9980;51.020;7.772;2022-08-21T14:34:58;97543.00;;;30.80
19666;BMP180;9980;51.020;7.772;2022-08-21T14:37:25;97544.00;;;30.70
19666;BMP180;9980;51.020;7.772;2022-08-21T14:39:52;97538.00;;;30.70
19666;BMP180;9980;51.020;7.772;2022-08-21T14:42:20;97542.00;;;30.70
19666;BMP180;9980;51.020;7.772;2022-08-21T14:44:47;97536.00;;;30.70
19666;BMP180;9980;51.020;7.772;2022-08-21T14:47:14;97546.00;;;30.70
19666;BMP180;9980;51.020;7.772;2022-08-21T14:49:41;97545.00;;;30.60
19666;BMP180;9980;51.020;7.772;2022-08-21T14:52:09;97536.00;;;30.60
19666;BMP180;9980;51.020;7.772;2022-08-21T14:54:36;97535.00;;;30.60
19666;BMP180;9980;51.020;7.772;2022-08-21T14:57:10;97541.00;;;30.50
19666;BMP180;9980;51.020;7.772;2022-08-21T14:59:39;97545.00;;;30.60
19666;BMP180;9980;51.020;7.772;2022-08-21T15:02:08;97535.00;;;30.60
19666;BMP180;9980;51.020;7.772;2022-08-21T15:04:35;97537.00;;;30.50
19666;BMP180;9980;51.020;7.772;2022-08-21T15:07:03;97539.00;;;30.50
19666;BMP180;9980;51.020;7.772;2022-08-21T15:09:30;97541.00;;;30.50
19666;BMP180;9980;51.020;7.772;2022-08-21T15:12:00;97530.00;;;30.40
19666;BMP180;9980;51.020;7.772;2022-08-21T15:14:33;97536.00;;;30.40
19666;BMP180;9980;51.020;7.772;2022-08-21T15:17:01;97535.00;;;30.40
19666;BMP180;9980;51.020;7.772;2022-08-21T15:19:30;97538.00;;;30.40
19666;BMP180;9980;51.020;7.772;2022-08-21T15:21:57;97527.00;;;30.50
19666;BMP180;9980;51.020;7.772;2022-08-21T15:24:25;97542.00;;;30.50
19666;BMP180;9980;51.020;7.772;2022-08-21T15:26:55;97543.00;;;30.50
19666;BMP180;9980;51.020;7.772;2022-08-21T15:29:23;97537.00;;;30.50
19666;BMP180;9980;51.020;7.772;2022-08-21T15:31:58;97544.00;;;30.50
19666;BMP180;9980;51.020;7.772;2022-08-21T15:34:29;97545.00;;;30.60